Time;durP1;ratioP1;P1;durP2;ratioP2;P2;SDS_P1;SDS_P2;PMS_P1;PMS_P2;Temp;Humidity;BMP_temperature;BMP_pressure;BME280_temperature;BME280_humidity;BME280_pressure;Samples;Min_cycle;Max_cycle;Signal;HPM_P1;HPM_P2
2024/01/09 00:01:03;;;;;;;13.07;8.63;;;2.70;68.00;;;;;;5043436;28;20060;-66
2024/01/09 00:03:31;;;;;;;26.77;9.98;;;2.80;68.20;;;;;;5044844;28;20143;-67
2024/01/09 00:06:00;;;;;;;43.28;16.50;;;2.80;68.00;;;;;;5041571;28;20072;-67
2024/01/09 00:08:28;;;;;;;33.35;14.50;;;2.80;68.00;;;;;;5053920;28;20409;-65
2024/01/09 00:10:59;;;;;;;25.50;10.82;;;2.80;67.80;;;;;;5048821;28;20040;-67
2024/01/09 00:13:29;;;;;;;33.22;11.68;;;2.80;67.70;;;;;;5049441;28;20080;-65
2024/01/09 00:15:58;;;;;;;23.83;11.63;;;2.80;67.80;;;;;;5033345;28;20137;-67
2024/01/09 00:18:26;;;;;;;40.13;13.18;;;2.80;67.80;;;;;;5043379;28;20132;-66
2024/01/09 00:20:55;;;;;;;42.78;13.60;;;2.80;67.80;;;;;;5049813;28;20135;-66
2024/01/09 00:23:23;;;;;;;34.88;14.13;;;2.90;68.20;;;;;;5046958;28;20052;-67
2024/01/09 00:25:51;;;;;;;22.23;8.18;;;2.90;68.10;;;;;;5041505;28;20064;-66
2024/01/09 00:28:23;;;;;;;44.47;13.40;;;2.90;67.90;;;;;;5050397;28;20497;-66
2024/01/09 00:30:53;;;;;;;32.60;13.93;;;2.90;67.80;;;;;;5050989;28;20266;-67
2024/01/09 00:33:21;;;;;;;25.83;8.88;;;2.90;67.70;;;;;;5052508;28;20084;-66
2024/01/09 00:35:50;;;;;;;45.30;13.02;;;2.80;67.50;;;;;;5044476;28;20519;-67
2024/01/09 00:38:18;;;;;;;36.90;11.52;;;2.70;67.20;;;;;;5042569;28;20072;-67
2024/01/09 00:40:47;;;;;;;37.45;12.55;;;2.70;67.20;;;;;;5044143;28;20061;-67
2024/01/09 00:43:15;;;;;;;41.28;13.80;;;2.60;67.30;;;;;;5049139;28;20165;-67
2024/01/09 00:45:43;;;;;;;51.35;14.07;;;2.60;67.60;;;;;;5048640;28;20048;-66
2024/01/09 00:48:13;;;;;;;39.28;13.52;;;2.60;67.80;;;;;;5039115;28;20078;-65
2024/01/09 00:50:42;;;;;;;18.02;8.13;;;2.70;67.80;;;;;;5042245;28;20084;-67
2024/01/09 00:53:10;;;;;;;28.35;13.57;;;2.70;67.90;;;;;;5048042;28;20049;-64
2024/01/09 00:55:38;;;;;;;29.20;9.65;;;2.70;67.70;;;;;;5042933;28;20056;-65
2024/01/09 00:58:07;;;;;;;33.30;13.25;;;2.70;67.50;;;;;;5042315;28;20048;-67
2024/01/09 01:00:35;;;;;;;21.90;9.20;;;2.70;67.50;;;;;;5042427;28;20045;-66
2024/01/09 01:03:03;;;;;;;72.85;23.40;;;2.70;67.60;;;;;;5051685;28;20139;-66
2024/01/09 01:05:34;;;;;;;47.67;17.75;;;2.70;67.80;;;;;;5050543;28;20057;-66
2024/01/09 01:08:02;;;;;;;19.05;8.68;;;2.70;68.00;;;;;;5039682;28;20057;-67
2024/01/09 01:10:30;;;;;;;36.25;15.40;;;2.70;67.90;;;;;;5045171;28;20048;-66
2024/01/09 01:12:59;;;;;;;17.58;7.72;;;2.70;67.70;;;;;;5048599;28;20044;-66
2024/01/09 01:15:27;;;;;;;54.75;18.15;;;2.70;67.70;;;;;;5050133;28;20705;-66
2024/01/09 01:17:56;;;;;;;31.95;12.60;;;2.60;67.70;;;;;;5038629;28;20065;-66
2024/01/09 01:20:24;;;;;;;48.92;14.80;;;2.70;68.00;;;;;;5041656;28;20063;-65
2024/01/09 01:22:53;;;;;;;39.38;13.23;;;2.70;68.20;;;;;;5039832;28;20111;-67
2024/01/09 01:25:22;;;;;;;56.72;13.60;;;2.80;68.10;;;;;;5040220;28;20634;-66
2024/01/09 01:27:51;;;;;;;47.03;13.75;;;2.90;67.90;;;;;;5045718;28;20056;-67
2024/01/09 01:30:20;;;;;;;27.08;9.65;;;2.90;67.90;;;;;;5063736;28;20451;-67
2024/01/09 01:32:48;;;;;;;21.58;10.25;;;2.90;67.50;;;;;;5045970;28;20080;-64
2024/01/09 01:35:16;;;;;;;34.65;12.32;;;2.90;67.20;;;;;;5049341;28;20713;-65
2024/01/09 01:37:45;;;;;;;38.38;12.63;;;2.80;66.80;;;;;;5048720;28;20064;-67
2024/01/09 01:40:15;;;;;;;40.78;11.88;;;2.70;67.30;;;;;;5040019;28;20045;-66
2024/01/09 01:42:43;;;;;;;82.38;15.98;;;2.70;67.70;;;;;;5040079;28;20057;-66
2024/01/09 01:45:16;;;;;;;31.48;11.00;;;2.80;68.10;;;;;;5044118;28;20060;-66
2024/01/09 01:47:46;;;;;;;24.42;11.55;;;2.80;67.90;;;;;;5044894;28;20057;-65
2024/01/09 01:50:15;;;;;;;25.70;10.98;;;2.90;67.70;;;;;;5041906;28;20057;-66
2024/01/09 01:52:46;;;;;;;9.52;3.72;;;2.80;67.30;;;;;;5043593;28;20140;-67
2024/01/09 01:55:20;;;;;;;29.80;10.45;;;2.70;66.70;;;;;;5049560;28;20082;-66
2024/01/09 01:57:50;;;;;;;32.25;9.65;;;2.60;67.00;;;;;;5044288;28;20048;-65
2024/01/09 02:00:20;;;;;;;29.10;5.88;;;2.60;67.10;;;;;;5043364;28;20065;-66
2024/01/09 02:02:51;;;;;;;22.23;7.05;;;2.50;67.30;;;;;;5045882;28;20163;-65
2024/01/09 02:05:22;;;;;;;54.45;13.77;;;2.50;67.40;;;;;;5042352;28;20395;-65
2024/01/09 02:07:54;;;;;;;18.17;9.70;;;2.40;67.40;;;;;;5039392;28;20045;-68
2024/01/09 02:10:24;;;;;;;57.28;14.38;;;2.40;67.60;;;;;;5043371;28;20059;-65
2024/01/09 02:12:53;;;;;;;39.63;12.60;;;2.40;67.40;;;;;;5040956;28;20067;-65
2024/01/09 02:15:21;;;;;;;28.70;10.38;;;2.40;67.80;;;;;;5048001;28;20044;-67
2024/01/09 02:17:50;;;;;;;19.27;6.28;;;2.50;67.80;;;;;;5044245;28;20091;-66
2024/01/09 02:20:21;;;;;;;13.18;7.68;;;2.50;67.70;;;;;;5039648;28;20502;-66
2024/01/09 02:22:49;;;;;;;93.65;22.02;;;2.50;67.60;;;;;;5044883;28;20067;-66
2024/01/09 02:25:18;;;;;;;26.27;10.18;;;2.40;67.50;;;;;;5043715;28;20048;-67
2024/01/09 02:27:58;;;;;;;12.55;6.57;;;2.40;67.60;;;;;;5047022;28;20060;-66
2024/01/09 02:30:28;;;;;;;12.05;5.32;;;2.40;67.40;;;;;;5046241;28;20056;-66
2024/01/09 02:32:58;;;;;;;54.30;14.93;;;2.40;67.40;;;;;;5040046;28;20053;-66
2024/01/09 02:35:27;;;;;;;26.25;9.65;;;2.40;67.40;;;;;;5046838;28;20429;-66
2024/01/09 02:37:55;;;;;;;32.17;11.07;;;2.40;67.60;;;;;;5040344;28;20136;-66
2024/01/09 02:40:23;;;;;;;23.65;8.18;;;2.40;67.60;;;;;;5041978;28;20556;-65
2024/01/09 02:42:52;;;;;;;23.70;12.02;;;2.40;67.60;;;;;;5040331;28;20170;-66
2024/01/09 02:45:20;;;;;;;30.38;10.43;;;2.30;67.50;;;;;;5042282;28;20056;-66
2024/01/09 02:47:49;;;;;;;20.00;9.30;;;2.30;67.70;;;;;;5040567;28;20060;-64
2024/01/09 02:50:20;;;;;;;16.08;7.72;;;2.40;68.00;;;;;;5048619;28;20117;-65
2024/01/09 02:52:48;;;;;;;34.75;13.52;;;2.40;67.70;;;;;;5048041;28;20398;-66
2024/01/09 02:55:16;;;;;;;33.63;14.10;;;2.40;68.30;;;;;;5046332;28;20437;-67
2024/01/09 02:57:45;;;;;;;40.22;13.40;;;2.40;68.00;;;;;;5047788;28;20044;-67
2024/01/09 03:00:13;;;;;;;14.52;5.10;;;2.50;67.80;;;;;;5039096;28;20063;-65
2024/01/09 03:02:41;;;;;;;23.40;10.07;;;2.50;67.60;;;;;;5038421;28;20060;-67
2024/01/09 03:05:11;;;;;;;40.97;12.35;;;2.50;67.40;;;;;;5044668;28;20067;-66
2024/01/09 03:07:40;;;;;;;76.95;22.92;;;2.40;67.30;;;;;;5045508;28;20053;-67
2024/01/09 03:10:10;;;;;;;70.28;17.08;;;2.50;67.80;;;;;;5032668;28;20048;-66
2024/01/09 03:12:38;;;;;;;35.25;11.35;;;2.50;67.60;;;;;;5046599;28;20056;-66
2024/01/09 03:15:07;;;;;;;23.95;8.18;;;2.50;67.90;;;;;;5044246;28;20079;-66
2024/01/09 03:17:35;;;;;;;36.75;12.52;;;2.60;67.60;;;;;;5040738;28;20130;-67
2024/01/09 03:20:06;;;;;;;12.88;9.57;;;2.50;67.40;;;;;;5038254;28;20057;-66
2024/01/09 03:22:36;;;;;;;35.03;12.43;;;2.50;67.60;;;;;;5037247;28;20064;-66
2024/01/09 03:25:05;;;;;;;46.85;14.45;;;2.50;67.40;;;;;;5044181;28;20057;-66
2024/01/09 03:27:33;;;;;;;31.70;12.13;;;2.50;67.40;;;;;;5048146;28;20084;-67
2024/01/09 03:30:02;;;;;;;38.70;12.05;;;2.50;67.70;;;;;;5037226;28;20091;-67
2024/01/09 03:32:30;;;;;;;28.83;8.82;;;2.60;68.00;;;;;;5038624;28;20077;-67
2024/01/09 03:34:59;;;;;;;38.15;13.90;;;2.70;67.90;;;;;;5049135;28;20048;-66
2024/01/09 03:37:27;;;;;;;38.15;10.38;;;2.70;67.70;;;;;;5044590;28;20053;-66
2024/01/09 03:39:56;;;;;;;24.30;8.18;;;2.80;67.60;;;;;;5034120;28;20065;-66
2024/01/09 03:42:25;;;;;;;32.97;12.02;;;2.70;67.20;;;;;;5049297;28;20183;-67
2024/01/09 03:44:53;;;;;;;44.28;11.13;;;2.70;67.20;;;;;;5041188;28;21964;-66
2024/01/09 03:47:21;;;;;;;29.05;12.20;;;2.70;67.10;;;;;;5045283;28;20056;-67
2024/01/09 03:49:50;;;;;;;29.25;12.57;;;2.70;67.10;;;;;;5043018;28;20065;-66
2024/01/09 03:52:19;;;;;;;32.67;13.48;;;2.70;67.10;;;;;;5046253;28;20053;-67
2024/01/09 03:54:47;;;;;;;27.08;7.85;;;2.70;67.10;;;;;;5039897;28;20057;-67
2024/01/09 03:57:17;;;;;;;27.38;11.82;;;2.70;67.00;;;;;;5046021;28;20444;-67
2024/01/09 03:59:45;;;;;;;26.42;9.70;;;2.70;66.90;;;;;;5040080;28;20056;-65
2024/01/09 04:02:14;;;;;;;41.35;10.15;;;2.70;66.80;;;;;;5038844;28;20592;-66
2024/01/09 04:04:43;;;;;;;58.05;15.95;;;2.60;66.60;;;;;;5043892;28;20086;-66
2024/01/09 04:07:11;;;;;;;25.73;11.75;;;2.50;66.20;;;;;;5041785;28;20060;-66
2024/01/09 04:09:39;;;;;;;21.15;10.82;;;2.40;66.10;;;;;;5046810;28;20130;-65
2024/01/09 04:12:08;;;;;;;15.48;7.90;;;2.30;66.00;;;;;;5034559;28;20776;-66
2024/01/09 04:14:38;;;;;;;30.83;10.25;;;2.20;65.80;;;;;;5042942;28;20052;-68
2024/01/09 04:17:06;;;;;;;32.47;12.63;;;2.00;65.60;;;;;;5040894;28;20151;-67
2024/01/09 04:19:38;;;;;;;16.45;7.70;;;2.00;66.10;;;;;;5052158;28;20045;-66
2024/01/09 04:22:07;;;;;;;30.27;10.18;;;1.90;66.30;;;;;;5034164;28;20052;-67
2024/01/09 04:24:36;;;;;;;28.90;13.10;;;1.80;66.30;;;;;;5044275;28;20052;-67
2024/01/09 04:27:05;;;;;;;39.85;12.18;;;1.80;66.40;;;;;;5049368;28;20503;-66
2024/01/09 04:29:33;;;;;;;46.38;11.93;;;1.80;66.60;;;;;;5038786;28;20404;-67
2024/01/09 04:32:03;;;;;;;32.03;9.52;;;1.80;66.60;;;;;;5035250;28;20162;-66
2024/01/09 04:34:31;;;;;;;30.48;10.90;;;1.80;66.70;;;;;;5060924;28;20053;-66
2024/01/09 04:36:59;;;;;;;23.48;10.82;;;1.80;66.50;;;;;;5046124;28;20551;-66
2024/01/09 04:39:28;;;;;;;31.55;10.65;;;1.70;66.30;;;;;;5047114;28;20060;-66
2024/01/09 04:41:57;;;;;;;32.42;12.38;;;1.60;66.10;;;;;;5039359;28;20518;-66
2024/01/09 04:44:25;;;;;;;25.30;9.20;;;1.50;66.00;;;;;;5054020;28;20061;-67
2024/01/09 04:46:53;;;;;;;29.92;11.13;;;1.40;66.30;;;;;;5048746;28;20118;-66
2024/01/09 04:49:23;;;;;;;17.92;8.02;;;1.40;66.50;;;;;;5050034;28;20056;-66
2024/01/09 04:51:52;;;;;;;42.47;9.23;;;1.40;66.60;;;;;;5039060;28;20055;-64
2024/01/09 04:54:21;;;;;;;15.27;5.97;;;1.40;66.70;;;;;;5047878;28;20071;-67
2024/01/09 04:56:49;;;;;;;22.70;8.13;;;1.30;66.50;;;;;;5042819;28;20057;-66
2024/01/09 04:59:18;;;;;;;24.90;7.15;;;1.30;66.40;;;;;;5052034;28;20464;-68
2024/01/09 05:01:50;;;;;;;27.65;9.80;;;1.20;66.50;;;;;;5046416;28;20061;-66
2024/01/09 05:04:19;;;;;;;19.30;6.72;;;1.20;66.40;;;;;;5048174;28;20502;-67
2024/01/09 05:06:50;;;;;;;26.60;9.18;;;1.10;66.50;;;;;;5046271;28;20052;-67
2024/01/09 05:09:18;;;;;;;23.17;10.10;;;1.10;66.70;;;;;;5050510;28;20062;-67
2024/01/09 05:11:46;;;;;;;32.20;11.15;;;1.10;66.90;;;;;;5040734;28;20071;-66
2024/01/09 05:14:16;;;;;;;36.28;9.57;;;1.10;66.90;;;;;;5039533;28;20070;-67
2024/01/09 05:16:44;;;;;;;17.00;7.90;;;1.10;67.00;;;;;;5046499;28;20053;-68
2024/01/09 05:19:12;;;;;;;17.52;9.00;;;1.10;67.20;;;;;;5048620;28;20075;-65
2024/01/09 05:21:41;;;;;;;28.52;10.98;;;1.20;68.30;;;;;;5047432;28;20060;-67
2024/01/09 05:24:10;;;;;;;33.03;10.82;;;1.40;67.70;;;;;;5041290;28;20271;-68
2024/01/09 05:26:40;;;;;;;23.42;8.52;;;1.50;67.80;;;;;;5050131;28;20491;-67
2024/01/09 05:29:09;;;;;;;9.68;6.50;;;1.60;67.80;;;;;;5052046;28;20060;-69
2024/01/09 05:31:43;;;;;;;28.95;9.60;;;1.70;67.70;;;;;;5044636;28;20432;-69
2024/01/09 05:34:11;;;;;;;40.88;11.90;;;1.80;67.60;;;;;;5038518;28;20702;-66
2024/01/09 05:36:39;;;;;;;31.13;11.13;;;1.80;67.50;;;;;;5043190;28;20647;-68
2024/01/09 05:39:08;;;;;;;37.85;14.70;;;1.90;67.70;;;;;;5039235;28;21354;-68
2024/01/09 05:41:37;;;;;;;28.55;9.55;;;2.00;67.70;;;;;;5048806;28;20071;-67
2024/01/09 05:44:06;;;;;;;29.35;11.93;;;2.10;67.70;;;;;;5038116;28;20563;-67
2024/01/09 05:46:34;;;;;;;31.88;12.30;;;2.20;67.70;;;;;;5060357;28;20056;-67
2024/01/09 05:49:04;;;;;;;27.38;12.05;;;2.30;67.60;;;;;;5050180;28;20106;-67
2024/01/09 05:51:33;;;;;;;32.00;10.73;;;2.30;67.50;;;;;;5051517;28;20489;-67
2024/01/09 05:54:02;;;;;;;34.53;11.30;;;2.40;67.50;;;;;;5041391;28;20056;-68
2024/01/09 05:56:30;;;;;;;25.02;10.43;;;2.40;67.20;;;;;;5042717;28;20358;-68
2024/01/09 05:59:00;;;;;;;39.03;11.30;;;2.40;67.10;;;;;;5046632;28;20048;-67
2024/01/09 06:01:28;;;;;;;31.00;13.45;;;2.30;66.60;;;;;;5046431;28;20052;-68
2024/01/09 06:03:57;;;;;;;30.48;11.80;;;2.30;66.70;;;;;;5041061;28;20049;-67
2024/01/09 06:06:25;;;;;;;46.97;13.25;;;2.20;66.70;;;;;;5042773;28;20106;-68
2024/01/09 06:08:54;;;;;;;28.05;10.65;;;2.20;67.10;;;;;;5044660;28;20139;-68
2024/01/09 06:11:23;;;;;;;31.63;9.80;;;2.20;67.20;;;;;;5047522;28;20508;-67
2024/01/09 06:13:53;;;;;;;25.42;8.95;;;2.30;67.10;;;;;;5042444;28;20141;-68
2024/01/09 06:16:23;;;;;;;40.88;11.20;;;2.20;66.50;;;;;;5042108;28;20057;-68
2024/01/09 06:18:52;;;;;;;18.02;8.68;;;2.10;66.60;;;;;;5047082;28;20057;-68
2024/01/09 06:21:20;;;;;;;21.08;5.28;;;2.10;67.40;;;;;;5044626;28;20095;-64
2024/01/09 06:23:49;;;;;;;42.70;10.40;;;2.00;66.80;;;;;;5046861;28;20091;-62
2024/01/09 06:26:17;;;;;;;52.63;13.45;;;2.00;67.00;;;;;;5041236;28;20132;-63
2024/01/09 06:28:46;;;;;;;32.45;9.63;;;2.00;67.00;;;;;;5045297;28;20041;-63
2024/01/09 06:31:14;;;;;;;35.78;12.30;;;2.00;66.80;;;;;;5039518;28;20048;-64
2024/01/09 06:33:44;;;;;;;43.15;11.60;;;1.90;66.90;;;;;;5041596;28;20081;-63
2024/01/09 06:36:12;;;;;;;23.95;10.75;;;2.00;67.20;;;;;;5038607;28;20053;-63
2024/01/09 06:38:41;;;;;;;29.58;10.57;;;2.00;67.40;;;;;;5039594;28;20101;-64
2024/01/09 06:41:09;;;;;;;31.63;9.93;;;2.10;67.40;;;;;;5044712;28;20056;-62
2024/01/09 06:43:38;;;;;;;21.33;8.77;;;2.00;67.00;;;;;;5037125;28;20048;-63
2024/01/09 06:46:06;;;;;;;34.25;11.18;;;2.00;67.00;;;;;;5034389;28;20060;-62
2024/01/09 06:48:35;;;;;;;29.67;14.10;;;2.00;66.90;;;;;;5048123;28;20112;-63
2024/01/09 06:51:05;;;;;;;27.70;14.27;;;2.10;67.10;;;;;;5025193;28;20115;-63
2024/01/09 06:53:33;;;;;;;24.90;11.57;;;2.10;67.40;;;;;;5038234;28;20061;-62
2024/01/09 06:56:02;;;;;;;33.22;11.73;;;2.20;67.20;;;;;;5041633;28;20052;-63
2024/01/09 06:58:30;;;;;;;48.10;12.98;;;2.30;67.20;;;;;;5042268;28;20056;-62
2024/01/09 07:00:59;;;;;;;34.92;10.82;;;2.30;67.20;;;;;;5048551;28;20071;-62
2024/01/09 07:03:26;;;;;;;64.95;13.48;;;2.30;66.90;;;;;;5051071;28;20063;-61
2024/01/09 07:05:55;;;;;;;24.60;9.38;;;2.30;66.90;;;;;;5047744;28;20057;-63
2024/01/09 07:08:25;;;;;;;33.30;10.00;;;2.20;66.40;;;;;;5050679;28;20605;-62
2024/01/09 07:10:54;;;;;;;15.35;7.88;;;2.10;66.40;;;;;;5049704;28;20071;-63
2024/01/09 07:13:22;;;;;;;29.30;10.88;;;2.10;66.40;;;;;;5049333;28;20060;-62
2024/01/09 07:15:51;;;;;;;35.33;9.63;;;2.00;66.40;;;;;;5049497;28;20060;-61
2024/01/09 07:18:19;;;;;;;38.55;9.73;;;1.90;66.10;;;;;;5050013;28;20068;-65
2024/01/09 07:20:47;;;;;;;36.90;11.35;;;1.80;66.20;;;;;;5046640;28;20158;-62
2024/01/09 07:23:16;;;;;;;23.63;10.15;;;1.80;66.90;;;;;;5046997;28;20063;-61
2024/01/09 07:25:49;;;;;;;18.60;7.35;;;1.90;67.30;;;;;;5050253;28;20067;-62
2024/01/09 07:28:18;;;;;;;27.98;11.32;;;2.10;67.60;;;;;;5050781;28;20171;-63
2024/01/09 07:30:47;;;;;;;29.95;10.77;;;2.20;67.70;;;;;;5046431;28;20149;-61
2024/01/09 07:33:16;;;;;;;22.90;9.32;;;2.40;67.70;;;;;;5051984;28;20141;-63
2024/01/09 07:35:44;;;;;;;26.80;11.18;;;2.50;67.70;;;;;;5045576;28;20056;-62
2024/01/09 07:38:13;;;;;;;29.88;12.07;;;2.50;67.30;;;;;;5040083;28;20769;-63
2024/01/09 07:40:41;;;;;;;21.10;8.82;;;2.50;67.00;;;;;;5051254;28;20059;-62
2024/01/09 07:43:11;;;;;;;40.83;12.02;;;2.60;67.20;;;;;;5047445;28;20052;-64
2024/01/09 07:45:39;;;;;;;51.60;16.75;;;2.50;66.80;;;;;;5051569;28;20057;-63
2024/01/09 07:48:08;;;;;;;30.05;11.38;;;2.50;66.70;;;;;;5044615;28;20048;-63
2024/01/09 07:50:36;;;;;;;20.52;7.97;;;2.50;66.90;;;;;;5045246;28;20057;-62
2024/01/09 07:53:05;;;;;;;46.58;11.32;;;2.50;66.50;;;;;;5050997;28;20080;-63
2024/01/09 07:55:33;;;;;;;43.30;12.43;;;2.30;65.70;;;;;;5051167;28;20157;-63
2024/01/09 07:58:01;;;;;;;39.15;12.05;;;2.30;66.50;;;;;;5041706;28;20048;-63
2024/01/09 08:00:32;;;;;;;41.50;13.90;;;2.40;67.30;;;;;;5056870;28;20055;-63
2024/01/09 08:03:04;;;;;;;56.50;11.73;;;2.60;67.60;;;;;;5052475;28;20080;-63
2024/01/09 08:05:33;;;;;;;14.07;6.15;;;2.70;67.40;;;;;;5052609;28;20055;-62
2024/01/09 08:08:01;;;;;;;20.38;10.05;;;2.80;67.20;;;;;;5039240;28;20088;-63
2024/01/09 08:10:30;;;;;;;85.28;10.70;;;2.70;66.40;;;;;;5053517;28;20063;-62
2024/01/09 08:12:58;;;;;;;35.33;13.40;;;2.70;66.70;;;;;;5055265;28;20153;-63
2024/01/09 08:15:27;;;;;;;27.33;12.10;;;2.80;67.30;;;;;;5057597;28;20060;-64
2024/01/09 08:17:58;;;;;;;32.50;11.13;;;2.90;67.50;;;;;;5041314;28;20057;-63
2024/01/09 08:20:26;;;;;;;19.52;8.13;;;3.10;67.90;;;;;;5055743;28;20048;-63
2024/01/09 08:22:55;;;;;;;32.65;11.00;;;3.10;67.00;;;;;;5053250;28;20603;-62
2024/01/09 08:25:23;;;;;;;26.75;9.70;;;3.10;67.00;;;;;;5056846;28;20052;-65
2024/01/09 08:27:51;;;;;;;21.50;8.90;;;3.10;66.60;;;;;;5053514;28;20060;-61
2024/01/09 08:30:20;;;;;;;31.00;10.95;;;3.00;66.00;;;;;;5046686;28;20655;-64
2024/01/09 08:32:48;;;;;;;23.10;8.75;;;2.80;65.90;;;;;;5054924;28;20053;-63
2024/01/09 08:35:18;;;;;;;28.05;9.35;;;2.90;66.70;;;;;;5055063;28;20077;-63
2024/01/09 08:37:47;;;;;;;22.02;7.05;;;2.90;67.20;;;;;;5055743;28;20169;-64
2024/01/09 08:40:15;;;;;;;29.58;11.95;;;2.90;67.50;;;;;;5036421;28;20049;-62
2024/01/09 08:42:44;;;;;;;32.97;11.05;;;2.90;66.80;;;;;;5049365;28;20060;-63
2024/01/09 08:45:13;;;;;;;22.10;10.57;;;3.00;66.90;;;;;;5057647;28;20061;-61
2024/01/09 08:47:42;;;;;;;27.10;10.68;;;3.00;67.20;;;;;;5055043;28;20125;-62
2024/01/09 08:50:10;;;;;;;35.63;12.30;;;3.20;67.70;;;;;;5047063;28;20123;-62
2024/01/09 08:52:40;;;;;;;21.42;8.18;;;3.30;67.50;;;;;;5053178;28;20053;-64
2024/01/09 08:55:09;;;;;;;30.13;12.35;;;3.30;67.00;;;;;;5053197;28;20448;-61
2024/01/09 08:57:37;;;;;;;21.10;9.70;;;3.30;67.20;;;;;;5056061;28;20129;-62
2024/01/09 09:00:07;;;;;;;23.08;11.90;;;3.40;67.70;;;;;;5042689;28;20057;-63
2024/01/09 09:02:36;;;;;;;16.90;7.80;;;3.60;67.90;;;;;;5051170;28;20055;-63
2024/01/09 09:05:05;;;;;;;32.78;13.88;;;3.70;67.60;;;;;;5054310;28;20489;-62
2024/01/09 09:07:33;;;;;;;28.13;10.02;;;3.70;66.50;;;;;;5056788;28;20099;-62
2024/01/09 09:10:03;;;;;;;30.70;10.88;;;3.60;66.60;;;;;;5042621;28;20504;-62
2024/01/09 09:12:31;;;;;;;45.75;14.07;;;3.60;66.50;;;;;;5049953;28;20079;-63
2024/01/09 09:14:59;;;;;;;42.22;13.73;;;3.50;66.70;;;;;;5050244;28;20113;-63
2024/01/09 09:17:27;;;;;;;16.95;5.65;;;3.60;66.90;;;;;;5052731;28;20113;-64
2024/01/09 09:19:55;;;;;;;28.35;10.95;;;3.50;66.30;;;;;;5051063;28;20110;-61
2024/01/09 09:22:23;;;;;;;27.35;8.40;;;3.50;66.50;;;;;;5048414;28;20056;-62
2024/01/09 09:24:52;;;;;;;22.75;10.13;;;3.40;66.70;;;;;;5053267;28;20056;-62
2024/01/09 09:27:21;;;;;;;29.35;13.00;;;3.50;67.10;;;;;;5052596;28;20133;-62
2024/01/09 09:29:52;;;;;;;38.53;13.15;;;3.60;67.50;;;;;;5053332;28;20068;-62
2024/01/09 09:32:20;;;;;;;34.05;12.27;;;3.70;67.70;;;;;;5047730;28;20483;-63
2024/01/09 09:34:49;;;;;;;46.30;15.48;;;3.90;67.60;;;;;;5048526;28;20107;-64
2024/01/09 09:37:20;;;;;;;43.22;7.25;;;4.00;67.70;;;;;;5053060;28;20056;-62
2024/01/09 09:39:48;;;;;;;29.67;13.68;;;4.00;67.20;;;;;;5042306;28;20056;-62
2024/01/09 09:42:16;;;;;;;34.75;11.40;;;4.10;67.20;;;;;;5043900;28;21443;-64
2024/01/09 09:44:51;;;;;;;36.20;12.35;;;4.10;66.80;;;;;;5042937;28;20414;-61
2024/01/09 09:47:21;;;;;;;46.45;13.95;;;4.00;66.40;;;;;;5062692;28;20060;-62
2024/01/09 09:49:52;;;;;;;32.40;12.52;;;4.00;67.00;;;;;;5049814;28;20064;-63
2024/01/09 09:52:22;;;;;;;49.67;14.65;;;4.10;66.90;;;;;;5049277;28;20121;-63
2024/01/09 09:54:51;;;;;;;31.20;12.27;;;4.10;67.00;;;;;;5049973;28;20315;-62
2024/01/09 09:57:20;;;;;;;37.22;12.70;;;4.20;67.00;;;;;;5053626;28;20066;-62
2024/01/09 09:59:50;;;;;;;36.60;13.63;;;4.20;66.80;;;;;;5049955;28;20080;-62
2024/01/09 10:02:24;;;;;;;38.15;15.30;;;4.20;67.00;;;;;;5038588;28;20124;-62
2024/01/09 10:04:56;;;;;;;34.35;13.15;;;4.30;67.50;;;;;;5052247;28;20060;-63
2024/01/09 10:07:24;;;;;;;31.42;13.57;;;4.50;67.60;;;;;;5049735;28;20418;-63
2024/01/09 10:09:55;;;;;;;34.80;10.13;;;4.60;67.10;;;;;;5043121;28;20487;-62
2024/01/09 10:12:24;;;;;;;26.75;11.38;;;4.60;67.00;;;;;;5049038;28;20058;-63
2024/01/09 10:15:07;;;;;;;41.58;15.10;;;4.70;67.30;;;;;;5045794;28;20080;-65
2024/01/09 10:17:37;;;;;;;69.70;12.63;;;4.80;67.20;;;;;;5049024;28;20114;-63
2024/01/09 10:20:08;;;;;;;35.90;12.80;;;4.90;67.60;;;;;;5044582;28;20084;-63
2024/01/09 10:22:38;;;;;;;57.25;13.55;;;5.10;68.10;;;;;;5049605;28;20557;-63
2024/01/09 10:25:08;;;;;;;35.60;13.45;;;5.20;67.70;;;;;;5049791;28;20088;-62
2024/01/09 10:27:37;;;;;;;63.28;14.13;;;5.30;67.70;;;;;;5051306;28;21307;-62
2024/01/09 10:30:08;;;;;;;56.88;14.75;;;5.40;67.90;;;;;;5043956;28;20062;-62
2024/01/09 10:32:38;;;;;;;40.15;12.85;;;5.50;68.00;;;;;;5043997;28;20050;-62
2024/01/09 10:35:12;;;;;;;40.05;15.07;;;5.60;67.90;;;;;;5048226;28;20145;-63
2024/01/09 10:37:43;;;;;;;52.75;12.50;;;5.60;66.90;;;;;;5049192;28;20061;-63
2024/01/09 10:40:13;;;;;;;46.03;13.60;;;5.50;66.60;;;;;;5045437;28;20048;-62
2024/01/09 10:42:47;;;;;;;49.85;12.98;;;5.50;66.90;;;;;;5043853;28;20050;-62
2024/01/09 10:45:19;;;;;;;45.05;15.75;;;5.50;66.90;;;;;;5052373;28;20521;-64
2024/01/09 10:47:52;;;;;;;42.22;13.13;;;5.50;67.00;;;;;;5043504;28;20103;-62
2024/01/09 10:50:22;;;;;;;45.55;16.30;;;5.50;66.70;;;;;;5042462;28;21820;-62
2024/01/09 10:52:51;;;;;;;58.33;17.65;;;5.40;66.50;;;;;;5041510;28;20053;-61
2024/01/09 10:55:21;;;;;;;53.15;15.65;;;5.40;66.70;;;;;;5049409;28;20579;-61
2024/01/09 10:57:50;;;;;;;63.83;15.82;;;5.40;66.50;;;;;;5046629;28;20135;-62
2024/01/09 11:00:22;;;;;;;50.92;18.00;;;5.40;66.50;;;;;;5038714;28;20878;-63
2024/01/09 11:02:50;;;;;;;48.08;14.40;;;5.40;66.50;;;;;;5047893;28;20080;-63
2024/01/09 11:05:19;;;;;;;49.08;14.30;;;5.30;66.20;;;;;;5048242;28;20528;-63
2024/01/09 11:07:50;;;;;;;67.80;16.98;;;5.20;65.70;;;;;;5049049;28;20059;-62
2024/01/09 11:10:21;;;;;;;51.05;15.20;;;5.10;65.70;;;;;;5041602;28;20063;-62
2024/01/09 11:12:52;;;;;;;41.13;14.52;;;5.00;65.30;;;;;;5047572;28;20126;-61
2024/01/09 11:15:27;;;;;;;73.22;17.25;;;4.90;65.30;;;;;;5041999;28;20080;-62
2024/01/09 11:18:01;;;;;;;37.17;11.93;;;4.70;65.10;;;;;;5035926;28;20052;-61
2024/01/09 11:20:31;;;;;;;38.50;14.18;;;4.60;65.10;;;;;;5043173;28;20307;-63
2024/01/09 11:22:59;;;;;;;53.58;13.07;;;4.50;65.40;;;;;;5045033;28;20076;-61
2024/01/09 11:25:29;;;;;;;52.95;10.60;;;4.50;65.50;;;;;;5053803;28;20052;-63
2024/01/09 11:27:58;;;;;;;46.83;14.95;;;4.50;65.90;;;;;;5046279;28;20057;-66
2024/01/09 11:30:31;;;;;;;55.10;12.35;;;4.60;65.90;;;;;;5044331;28;20119;-62
2024/01/09 11:33:27;;;;;;;49.28;14.65;;;4.60;65.70;;;;;;5047321;28;20151;-66
2024/01/09 11:35:56;;;;;;;34.70;12.73;;;4.70;65.80;;;;;;5044231;28;20060;-61
2024/01/09 11:38:25;;;;;;;41.25;13.73;;;4.70;65.90;;;;;;5041759;28;20132;-62
2024/01/09 11:40:54;;;;;;;49.58;11.35;;;4.80;65.90;;;;;;5048618;28;20110;-63
2024/01/09 11:43:23;;;;;;;56.92;14.20;;;4.80;65.90;;;;;;5048893;28;20143;-62
2024/01/09 11:45:54;;;;;;;46.88;13.88;;;4.90;65.90;;;;;;5048424;28;20159;-63
2024/01/09 11:48:23;;;;;;;69.38;16.88;;;4.90;65.80;;;;;;5046086;28;20052;-63
2024/01/09 11:50:52;;;;;;;31.27;13.63;;;4.90;65.70;;;;;;5049774;28;20162;-63
2024/01/09 11:53:21;;;;;;;38.25;14.98;;;5.00;65.70;;;;;;5050821;28;20054;-61
2024/01/09 11:55:50;;;;;;;44.28;13.88;;;5.00;65.60;;;;;;5049137;28;20081;-65
2024/01/09 11:58:20;;;;;;;55.10;16.73;;;5.00;65.60;;;;;;5058260;28;20032;-61
2024/01/09 12:00:48;;;;;;;32.00;13.85;;;5.00;65.40;;;;;;5051726;28;20061;-62
2024/01/09 12:03:18;;;;;;;47.35;15.30;;;4.90;65.10;;;;;;5045406;28;20098;-63
2024/01/09 12:05:46;;;;;;;43.42;12.93;;;4.90;65.30;;;;;;5045559;28;20049;-62
2024/01/09 12:08:15;;;;;;;36.25;16.52;;;4.90;65.70;;;;;;5039772;28;20088;-64
2024/01/09 12:10:44;;;;;;;36.38;15.30;;;5.00;65.90;;;;;;5049372;28;20051;-62
2024/01/09 12:13:13;;;;;;;54.88;14.30;;;5.10;66.00;;;;;;5050608;28;20136;-63
2024/01/09 12:15:41;;;;;;;56.72;13.32;;;5.20;66.00;;;;;;5051195;28;20062;-61
2024/01/09 12:18:10;;;;;;;42.00;12.88;;;5.20;65.90;;;;;;5039497;28;20511;-63
2024/01/09 12:20:41;;;;;;;45.13;12.30;;;5.30;66.10;;;;;;5043505;28;20053;-62
2024/01/09 12:23:09;;;;;;;33.10;13.20;;;5.30;66.10;;;;;;5048095;28;20702;-63
2024/01/09 12:25:38;;;;;;;150.77;22.58;;;5.40;66.20;;;;;;5046512;28;20051;-62
2024/01/09 12:28:06;;;;;;;35.33;13.05;;;5.40;66.10;;;;;;5041678;28;20146;-63
2024/01/09 12:30:36;;;;;;;51.72;15.63;;;5.50;66.20;;;;;;5051549;28;20699;-62
2024/01/09 12:33:05;;;;;;;59.85;15.70;;;5.60;66.20;;;;;;5036461;28;20265;-63
2024/01/09 12:35:36;;;;;;;35.25;12.98;;;5.60;66.30;;;;;;5050266;28;20063;-64
2024/01/09 12:38:06;;;;;;;50.30;16.42;;;5.70;66.10;;;;;;5042521;28;20146;-61
2024/01/09 12:40:33;;;;;;;50.25;14.30;;;5.70;66.00;;;;;;5046574;28;20105;-64
2024/01/09 12:43:10;;;;;;;37.55;12.45;;;5.70;66.00;;;;;;5046788;28;20098;-62
2024/01/09 12:45:40;;;;;;;49.53;14.35;;;5.70;65.50;;;;;;5051451;28;20366;-62
2024/01/09 12:48:09;;;;;;;45.35;13.43;;;5.50;65.00;;;;;;5051501;28;20106;-63